sensor_id;sensor_type;location;lat;lon;timestamp;P1;durP1;ratioP1;P2;durP2;ratioP2
78312;SDS011;67568;47.438;21.408;2023-09-19T00:01:27;9.30;;;5.50;;
78312;SDS011;67568;47.438;21.408;2023-09-19T00:03:54;12.48;;;5.82;;
78312;SDS011;67568;47.438;21.408;2023-09-19T00:06:20;12.15;;;5.85;;
78312;SDS011;67568;47.438;21.408;2023-09-19T00:08:47;9.50;;;5.47;;
78312;SDS011;67568;47.438;21.408;2023-09-19T00:11:14;10.95;;;5.55;;
78312;SDS011;67568;47.438;21.408;2023-09-19T00:13:40;11.20;;;5.80;;
78312;SDS011;67568;47.438;21.408;2023-09-19T00:16:08;9.55;;;5.22;;
78312;SDS011;67568;47.438;21.408;2023-09-19T00:18:37;10.82;;;5.53;;
78312;SDS011;67568;47.438;21.408;2023-09-19T00:21:04;11.00;;;4.57;;
78312;SDS011;67568;47.438;21.408;2023-09-19T00:23:31;8.80;;;4.70;;
78312;SDS011;67568;47.438;21.408;2023-09-19T00:26:00;9.95;;;4.90;;
78312;SDS011;67568;47.438;21.408;2023-09-19T00:28:27;8.85;;;4.68;;
78312;SDS011;67568;47.438;21.408;2023-09-19T00:30:54;8.90;;;4.38;;
78312;SDS011;67568;47.438;21.408;2023-09-19T00:33:27;10.57;;;4.40;;
78312;SDS011;67568;47.438;21.408;2023-09-19T00:35:55;10.55;;;4.90;;
78312;SDS011;67568;47.438;21.408;2023-09-19T00:38:22;8.73;;;4.80;;
78312;SDS011;67568;47.438;21.408;2023-09-19T00:40:50;9.20;;;4.10;;
78312;SDS011;67568;47.438;21.408;2023-09-19T00:43:17;9.30;;;4.68;;
78312;SDS011;67568;47.438;21.408;2023-09-19T00:45:45;8.90;;;5.03;;
78312;SDS011;67568;47.438;21.408;2023-09-19T00:48:13;10.32;;;4.15;;
78312;SDS011;67568;47.438;21.408;2023-09-19T00:50:42;11.00;;;4.50;;
78312;SDS011;67568;47.438;21.408;2023-09-19T00:53:09;8.77;;;4.60;;
78312;SDS011;67568;47.438;21.408;2023-09-19T00:55:41;9.48;;;4.35;;
78312;SDS011;67568;47.438;21.408;2023-09-19T00:58:08;9.67;;;4.30;;
78312;SDS011;67568;47.438;21.408;2023-09-19T01:00:35;7.70;;;4.32;;
78312;SDS011;67568;47.438;21.408;2023-09-19T01:03:03;7.20;;;4.18;;
78312;SDS011;67568;47.438;21.408;2023-09-19T01:05:30;9.27;;;4.30;;
78312;SDS011;67568;47.438;21.408;2023-09-19T01:07:57;9.05;;;4.30;;
78312;SDS011;67568;47.438;21.408;2023-09-19T01:10:23;8.77;;;4.37;;
78312;SDS011;67568;47.438;21.408;2023-09-19T01:30:10;7.63;;;4.40;;
78312;SDS011;67568;47.438;21.408;2023-09-19T01:32:40;10.30;;;4.10;;
78312;SDS011;67568;47.438;21.408;2023-09-19T01:35:08;8.52;;;4.25;;
78312;SDS011;67568;47.438;21.408;2023-09-19T01:37:35;9.23;;;4.07;;
78312;SDS011;67568;47.438;21.408;2023-09-19T01:40:03;9.60;;;4.22;;
78312;SDS011;67568;47.438;21.408;2023-09-19T01:51:13;8.40;;;3.90;;
78312;SDS011;67568;47.438;21.408;2023-09-19T01:53:50;7.70;;;3.95;;
78312;SDS011;67568;47.438;21.408;2023-09-19T01:56:29;7.85;;;4.00;;
78312;SDS011;67568;47.438;21.408;2023-09-19T01:59:24;10.02;;;4.00;;
78312;SDS011;67568;47.438;21.408;2023-09-19T02:01:52;10.75;;;4.55;;
78312;SDS011;67568;47.438;21.408;2023-09-19T02:04:23;8.90;;;4.30;;
78312;SDS011;67568;47.438;21.408;2023-09-19T02:06:53;8.02;;;3.80;;
78312;SDS011;67568;47.438;21.408;2023-09-19T02:09:23;10.43;;;4.57;;
78312;SDS011;67568;47.438;21.408;2023-09-19T02:11:50;8.27;;;4.25;;
78312;SDS011;67568;47.438;21.408;2023-09-19T02:14:16;8.55;;;4.00;;
78312;SDS011;67568;47.438;21.408;2023-09-19T02:16:43;7.70;;;3.73;;
78312;SDS011;67568;47.438;21.408;2023-09-19T02:19:19;8.32;;;3.92;;
78312;SDS011;67568;47.438;21.408;2023-09-19T02:21:46;11.20;;;4.13;;
78312;SDS011;67568;47.438;21.408;2023-09-19T02:24:15;7.75;;;3.80;;
78312;SDS011;67568;47.438;21.408;2023-09-19T02:26:44;9.20;;;4.05;;
78312;SDS011;67568;47.438;21.408;2023-09-19T02:29:11;9.07;;;3.67;;
78312;SDS011;67568;47.438;21.408;2023-09-19T02:31:38;8.48;;;3.80;;
78312;SDS011;67568;47.438;21.408;2023-09-19T02:34:07;8.25;;;3.60;;
78312;SDS011;67568;47.438;21.408;2023-09-19T02:36:35;6.30;;;3.40;;
78312;SDS011;67568;47.438;21.408;2023-09-19T02:39:02;8.50;;;3.88;;
78312;SDS011;67568;47.438;21.408;2023-09-19T02:41:29;7.97;;;3.60;;
78312;SDS011;67568;47.438;21.408;2023-09-19T02:43:58;7.78;;;3.65;;
78312;SDS011;67568;47.438;21.408;2023-09-19T02:46:25;7.75;;;3.33;;
78312;SDS011;67568;47.438;21.408;2023-09-19T02:48:55;8.40;;;3.47;;
78312;SDS011;67568;47.438;21.408;2023-09-19T02:51:22;7.40;;;3.60;;
78312;SDS011;67568;47.438;21.408;2023-09-19T02:53:49;8.97;;;3.90;;
78312;SDS011;67568;47.438;21.408;2023-09-19T02:56:17;8.82;;;3.40;;
78312;SDS011;67568;47.438;21.408;2023-09-19T02:58:45;11.68;;;4.78;;
78312;SDS011;67568;47.438;21.408;2023-09-19T03:01:11;8.18;;;3.50;;
78312;SDS011;67568;47.438;21.408;2023-09-19T03:03:39;8.43;;;3.75;;
78312;SDS011;67568;47.438;21.408;2023-09-19T03:06:06;10.83;;;3.87;;
78312;SDS011;67568;47.438;21.408;2023-09-19T03:08:33;7.53;;;3.13;;
78312;SDS011;67568;47.438;21.408;2023-09-19T03:11:00;8.27;;;3.53;;
78312;SDS011;67568;47.438;21.408;2023-09-19T03:13:26;9.48;;;3.35;;
78312;SDS011;67568;47.438;21.408;2023-09-19T03:15:54;7.57;;;3.53;;
78312;SDS011;67568;47.438;21.408;2023-09-19T03:18:24;8.13;;;3.43;;
78312;SDS011;67568;47.438;21.408;2023-09-19T03:20:54;7.75;;;3.42;;
78312;SDS011;67568;47.438;21.408;2023-09-19T03:23:22;12.15;;;3.70;;
78312;SDS011;67568;47.438;21.408;2023-09-19T03:25:49;9.85;;;3.95;;
78312;SDS011;67568;47.438;21.408;2023-09-19T03:28:16;9.63;;;3.75;;
78312;SDS011;67568;47.438;21.408;2023-09-19T03:30:43;10.23;;;3.93;;
78312;SDS011;67568;47.438;21.408;2023-09-19T03:33:11;10.98;;;3.70;;
78312;SDS011;67568;47.438;21.408;2023-09-19T03:35:39;8.48;;;3.75;;
78312;SDS011;67568;47.438;21.408;2023-09-19T03:38:06;8.10;;;3.45;;
78312;SDS011;67568;47.438;21.408;2023-09-19T03:40:33;8.80;;;3.63;;
78312;SDS011;67568;47.438;21.408;2023-09-19T03:43:00;11.67;;;4.07;;
78312;SDS011;67568;47.438;21.408;2023-09-19T03:45:27;8.48;;;3.78;;
78312;SDS011;67568;47.438;21.408;2023-09-19T03:47:54;7.10;;;3.70;;
78312;SDS011;67568;47.438;21.408;2023-09-19T03:50:24;9.10;;;4.00;;
78312;SDS011;67568;47.438;21.408;2023-09-19T03:52:55;7.43;;;3.72;;
78312;SDS011;67568;47.438;21.408;2023-09-19T03:55:23;9.80;;;3.90;;
78312;SDS011;67568;47.438;21.408;2023-09-19T03:57:53;9.13;;;3.80;;
78312;SDS011;67568;47.438;21.408;2023-09-19T04:00:20;6.40;;;3.60;;
78312;SDS011;67568;47.438;21.408;2023-09-19T04:02:47;8.80;;;3.65;;
78312;SDS011;67568;47.438;21.408;2023-09-19T04:05:17;7.90;;;3.60;;
78312;SDS011;67568;47.438;21.408;2023-09-19T04:07:43;9.30;;;4.40;;
78312;SDS011;67568;47.438;21.408;2023-09-19T04:10:10;7.97;;;3.63;;
78312;SDS011;67568;47.438;21.408;2023-09-19T04:12:38;7.63;;;3.50;;
78312;SDS011;67568;47.438;21.408;2023-09-19T04:15:07;9.05;;;3.60;;
78312;SDS011;67568;47.438;21.408;2023-09-19T04:17:34;7.47;;;3.78;;
78312;SDS011;67568;47.438;21.408;2023-09-19T04:20:01;7.70;;;3.40;;
78312;SDS011;67568;47.438;21.408;2023-09-19T04:22:28;12.98;;;3.85;;
78312;SDS011;67568;47.438;21.408;2023-09-19T04:24:54;9.43;;;3.75;;
78312;SDS011;67568;47.438;21.408;2023-09-19T04:27:21;7.97;;;3.25;;
78312;SDS011;67568;47.438;21.408;2023-09-19T04:29:48;8.05;;;3.80;;
78312;SDS011;67568;47.438;21.408;2023-09-19T04:32:15;7.70;;;3.80;;
78312;SDS011;67568;47.438;21.408;2023-09-19T04:34:44;9.48;;;3.67;;
78312;SDS011;67568;47.438;21.408;2023-09-19T04:37:11;9.02;;;4.00;;
78312;SDS011;67568;47.438;21.408;2023-09-19T04:39:40;8.00;;;3.47;;
78312;SDS011;67568;47.438;21.408;2023-09-19T04:42:07;8.90;;;3.67;;
78312;SDS011;67568;47.438;21.408;2023-09-19T04:44:33;8.57;;;3.70;;
78312;SDS011;67568;47.438;21.408;2023-09-19T04:47:00;9.13;;;3.90;;
78312;SDS011;67568;47.438;21.408;2023-09-19T04:49:27;9.45;;;3.58;;
78312;SDS011;67568;47.438;21.408;2023-09-19T04:51:54;8.38;;;3.78;;
78312;SDS011;67568;47.438;21.408;2023-09-19T04:54:21;11.30;;;3.35;;
78312;SDS011;67568;47.438;21.408;2023-09-19T04:56:48;8.17;;;3.83;;
78312;SDS011;67568;47.438;21.408;2023-09-19T04:59:15;9.40;;;3.63;;
78312;SDS011;67568;47.438;21.408;2023-09-19T05:01:41;9.13;;;3.33;;
78312;SDS011;67568;47.438;21.408;2023-09-19T05:04:10;8.85;;;3.70;;
78312;SDS011;67568;47.438;21.408;2023-09-19T05:06:37;7.22;;;3.70;;
78312;SDS011;67568;47.438;21.408;2023-09-19T05:09:04;8.57;;;3.20;;
78312;SDS011;67568;47.438;21.408;2023-09-19T05:11:31;7.97;;;3.22;;
78312;SDS011;67568;47.438;21.408;2023-09-19T05:13:58;7.65;;;3.80;;
78312;SDS011;67568;47.438;21.408;2023-09-19T05:16:28;11.38;;;4.10;;
78312;SDS011;67568;47.438;21.408;2023-09-19T05:18:55;7.22;;;3.30;;
78312;SDS011;67568;47.438;21.408;2023-09-19T05:21:25;10.37;;;3.50;;
78312;SDS011;67568;47.438;21.408;2023-09-19T05:23:52;8.80;;;3.15;;
78312;SDS011;67568;47.438;21.408;2023-09-19T05:26:19;11.70;;;3.80;;
78312;SDS011;67568;47.438;21.408;2023-09-19T05:28:46;8.82;;;3.58;;
78312;SDS011;67568;47.438;21.408;2023-09-19T05:31:12;9.07;;;4.00;;
78312;SDS011;67568;47.438;21.408;2023-09-19T05:33:43;8.70;;;3.40;;
78312;SDS011;67568;47.438;21.408;2023-09-19T05:36:09;8.57;;;3.70;;
78312;SDS011;67568;47.438;21.408;2023-09-19T05:38:36;10.32;;;4.20;;
78312;SDS011;67568;47.438;21.408;2023-09-19T05:41:04;8.38;;;3.50;;
78312;SDS011;67568;47.438;21.408;2023-09-19T05:43:31;8.27;;;4.05;;
78312;SDS011;67568;47.438;21.408;2023-09-19T05:46:08;10.17;;;4.23;;
78312;SDS011;67568;47.438;21.408;2023-09-19T05:48:35;8.88;;;3.65;;
78312;SDS011;67568;47.438;21.408;2023-09-19T05:51:05;12.73;;;3.60;;
78312;SDS011;67568;47.438;21.408;2023-09-19T05:53:32;8.95;;;3.33;;
78312;SDS011;67568;47.438;21.408;2023-09-19T05:55:58;7.05;;;3.35;;
78312;SDS011;67568;47.438;21.408;2023-09-19T05:58:25;10.80;;;3.30;;
78312;SDS011;67568;47.438;21.408;2023-09-19T06:00:52;10.30;;;3.28;;
78312;SDS011;67568;47.438;21.408;2023-09-19T06:03:19;11.10;;;3.58;;
78312;SDS011;67568;47.438;21.408;2023-09-19T06:05:46;10.32;;;3.47;;
78312;SDS011;67568;47.438;21.408;2023-09-19T06:08:13;8.63;;;3.25;;
78312;SDS011;67568;47.438;21.408;2023-09-19T06:10:40;10.63;;;3.33;;
78312;SDS011;67568;47.438;21.408;2023-09-19T06:13:07;9.48;;;3.40;;
78312;SDS011;67568;47.438;21.408;2023-09-19T06:15:34;13.70;;;4.28;;
78312;SDS011;67568;47.438;21.408;2023-09-19T06:18:00;11.50;;;3.42;;
78312;SDS011;67568;47.438;21.408;2023-09-19T06:20:27;9.82;;;3.60;;
78312;SDS011;67568;47.438;21.408;2023-09-19T06:22:54;10.50;;;3.80;;
78312;SDS011;67568;47.438;21.408;2023-09-19T06:25:21;8.35;;;3.70;;
78312;SDS011;67568;47.438;21.408;2023-09-19T06:27:50;8.65;;;3.38;;
78312;SDS011;67568;47.438;21.408;2023-09-19T06:30:19;10.90;;;3.67;;
78312;SDS011;67568;47.438;21.408;2023-09-19T06:32:46;9.27;;;3.30;;
78312;SDS011;67568;47.438;21.408;2023-09-19T06:35:16;9.47;;;3.63;;
78312;SDS011;67568;47.438;21.408;2023-09-19T06:37:43;12.05;;;4.03;;
78312;SDS011;67568;47.438;21.408;2023-09-19T06:40:14;13.90;;;3.75;;
78312;SDS011;67568;47.438;21.408;2023-09-19T06:42:42;13.13;;;3.55;;
78312;SDS011;67568;47.438;21.408;2023-09-19T06:45:13;11.60;;;3.72;;
78312;SDS011;67568;47.438;21.408;2023-09-19T06:47:40;10.17;;;3.87;;
78312;SDS011;67568;47.438;21.408;2023-09-19T06:50:07;9.98;;;4.18;;
78312;SDS011;67568;47.438;21.408;2023-09-19T06:52:34;10.98;;;3.90;;
78312;SDS011;67568;47.438;21.408;2023-09-19T06:55:05;12.70;;;3.53;;
78312;SDS011;67568;47.438;21.408;2023-09-19T06:57:33;10.13;;;3.95;;
78312;SDS011;67568;47.438;21.408;2023-09-19T07:00:02;10.43;;;3.83;;
78312;SDS011;67568;47.438;21.408;2023-09-19T07:02:29;9.40;;;3.53;;
78312;SDS011;67568;47.438;21.408;2023-09-19T07:04:56;9.82;;;3.53;;
78312;SDS011;67568;47.438;21.408;2023-09-19T07:07:23;11.45;;;3.85;;
78312;SDS011;67568;47.438;21.408;2023-09-19T07:09:50;11.57;;;3.80;;
78312;SDS011;67568;47.438;21.408;2023-09-19T07:12:16;9.70;;;3.77;;
78312;SDS011;67568;47.438;21.408;2023-09-19T07:14:43;12.95;;;3.80;;
78312;SDS011;67568;47.438;21.408;2023-09-19T07:17:13;19.98;;;4.72;;
78312;SDS011;67568;47.438;21.408;2023-09-19T07:19:40;13.48;;;4.43;;
78312;SDS011;67568;47.438;21.408;2023-09-19T07:22:06;13.45;;;4.22;;
78312;SDS011;67568;47.438;21.408;2023-09-19T07:24:33;13.03;;;3.97;;
78312;SDS011;67568;47.438;21.408;2023-09-19T07:27:00;10.80;;;4.70;;
78312;SDS011;67568;47.438;21.408;2023-09-19T07:29:28;11.82;;;4.13;;
78312;SDS011;67568;47.438;21.408;2023-09-19T07:31:55;10.05;;;4.57;;
78312;SDS011;67568;47.438;21.408;2023-09-19T07:34:22;16.20;;;4.32;;
78312;SDS011;67568;47.438;21.408;2023-09-19T07:36:48;17.97;;;4.60;;
78312;SDS011;67568;47.438;21.408;2023-09-19T07:39:15;12.13;;;3.70;;
78312;SDS011;67568;47.438;21.408;2023-09-19T07:41:49;12.07;;;4.55;;
78312;SDS011;67568;47.438;21.408;2023-09-19T07:44:16;15.25;;;4.10;;
78312;SDS011;67568;47.438;21.408;2023-09-19T07:46:43;13.35;;;4.10;;
78312;SDS011;67568;47.438;21.408;2023-09-19T07:49:09;14.10;;;4.03;;
78312;SDS011;67568;47.438;21.408;2023-09-19T07:51:37;14.27;;;4.20;;
78312;SDS011;67568;47.438;21.408;2023-09-19T07:54:06;14.88;;;4.38;;
78312;SDS011;67568;47.438;21.408;2023-09-19T07:56:33;17.55;;;4.97;;
78312;SDS011;67568;47.438;21.408;2023-09-19T07:58:59;18.23;;;4.70;;
78312;SDS011;67568;47.438;21.408;2023-09-19T08:01:26;17.17;;;5.10;;
78312;SDS011;67568;47.438;21.408;2023-09-19T08:03:53;18.52;;;4.72;;
78312;SDS011;67568;47.438;21.408;2023-09-19T08:06:20;13.30;;;4.70;;
78312;SDS011;67568;47.438;21.408;2023-09-19T08:08:50;16.42;;;4.68;;
78312;SDS011;67568;47.438;21.408;2023-09-19T08:11:17;12.15;;;4.32;;
78312;SDS011;67568;47.438;21.408;2023-09-19T08:13:46;15.47;;;5.03;;
78312;SDS011;67568;47.438;21.408;2023-09-19T08:16:14;8.82;;;4.30;;
78312;SDS011;67568;47.438;21.408;2023-09-19T08:18:41;18.02;;;4.63;;
78312;SDS011;67568;47.438;21.408;2023-09-19T08:21:08;11.82;;;4.55;;
78312;SDS011;67568;47.438;21.408;2023-09-19T08:23:40;16.52;;;5.43;;
78312;SDS011;67568;47.438;21.408;2023-09-19T08:26:07;12.87;;;4.67;;
78312;SDS011;67568;47.438;21.408;2023-09-19T08:28:34;16.33;;;4.40;;
78312;SDS011;67568;47.438;21.408;2023-09-19T08:31:02;22.77;;;5.45;;
78312;SDS011;67568;47.438;21.408;2023-09-19T08:33:33;18.10;;;5.20;;
78312;SDS011;67568;47.438;21.408;2023-09-19T08:36:00;15.18;;;4.95;;
78312;SDS011;67568;47.438;21.408;2023-09-19T08:38:28;15.00;;;4.97;;
78312;SDS011;67568;47.438;21.408;2023-09-19T08:40:59;12.82;;;4.60;;
78312;SDS011;67568;47.438;21.408;2023-09-19T08:43:26;20.42;;;5.05;;
78312;SDS011;67568;47.438;21.408;2023-09-19T08:45:57;14.20;;;4.72;;
78312;SDS011;67568;47.438;21.408;2023-09-19T08:48:29;18.40;;;5.07;;
78312;SDS011;67568;47.438;21.408;2023-09-19T08:51:03;13.57;;;5.13;;
78312;SDS011;67568;47.438;21.408;2023-09-19T08:56:14;14.63;;;4.47;;
78312;SDS011;67568;47.438;21.408;2023-09-19T08:58:45;15.98;;;5.40;;
78312;SDS011;67568;47.438;21.408;2023-09-19T09:01:16;14.65;;;4.80;;
78312;SDS011;67568;47.438;21.408;2023-09-19T09:03:47;13.60;;;4.13;;
78312;SDS011;67568;47.438;21.408;2023-09-19T09:06:15;15.77;;;4.75;;
78312;SDS011;67568;47.438;21.408;2023-09-19T09:08:47;14.57;;;4.43;;
78312;SDS011;67568;47.438;21.408;2023-09-19T09:11:14;13.82;;;4.45;;
78312;SDS011;67568;47.438;21.408;2023-09-19T09:13:41;11.27;;;4.20;;
78312;SDS011;67568;47.438;21.408;2023-09-19T09:16:09;20.73;;;5.43;;
78312;SDS011;67568;47.438;21.408;2023-09-19T09:18:36;12.75;;;4.43;;
78312;SDS011;67568;47.438;21.408;2023-09-19T09:21:03;14.20;;;4.80;;
78312;SDS011;67568;47.438;21.408;2023-09-19T09:23:30;9.48;;;4.63;;
78312;SDS011;67568;47.438;21.408;2023-09-19T09:25:58;13.25;;;4.70;;
78312;SDS011;67568;47.438;21.408;2023-09-19T09:28:26;11.47;;;4.20;;
78312;SDS011;67568;47.438;21.408;2023-09-19T09:30:55;13.30;;;4.90;;
78312;SDS011;67568;47.438;21.408;2023-09-19T09:33:22;10.85;;;4.50;;
78312;SDS011;67568;47.438;21.408;2023-09-19T09:35:49;15.80;;;5.28;;
78312;SDS011;67568;47.438;21.408;2023-09-19T09:38:18;12.95;;;4.65;;
78312;SDS011;67568;47.438;21.408;2023-09-19T09:40:56;15.03;;;4.77;;
78312;SDS011;67568;47.438;21.408;2023-09-19T09:43:29;14.45;;;5.53;;
78312;SDS011;67568;47.438;21.408;2023-09-19T09:46:15;18.75;;;4.90;;
78312;SDS011;67568;47.438;21.408;2023-09-19T09:48:43;16.52;;;4.70;;
78312;SDS011;67568;47.438;21.408;2023-09-19T09:51:11;13.00;;;4.70;;
78312;SDS011;67568;47.438;21.408;2023-09-19T09:53:38;17.93;;;4.77;;
78312;SDS011;67568;47.438;21.408;2023-09-19T09:56:06;13.40;;;4.18;;
78312;SDS011;67568;47.438;21.408;2023-09-19T09:58:50;12.85;;;4.50;;
78312;SDS011;67568;47.438;21.408;2023-09-19T10:01:18;16.98;;;4.53;;
78312;SDS011;67568;47.438;21.408;2023-09-19T10:03:44;17.17;;;4.72;;
78312;SDS011;67568;47.438;21.408;2023-09-19T10:06:12;15.77;;;5.20;;
78312;SDS011;67568;47.438;21.408;2023-09-19T10:08:40;13.52;;;4.70;;
78312;SDS011;67568;47.438;21.408;2023-09-19T10:11:27;15.25;;;4.60;;
78312;SDS011;67568;47.438;21.408;2023-09-19T10:13:54;14.85;;;5.20;;
78312;SDS011;67568;47.438;21.408;2023-09-19T10:16:20;11.82;;;4.88;;
78312;SDS011;67568;47.438;21.408;2023-09-19T10:18:49;12.63;;;5.10;;
78312;SDS011;67568;47.438;21.408;2023-09-19T10:21:20;19.77;;;5.32;;
78312;SDS011;67568;47.438;21.408;2023-09-19T10:23:47;11.77;;;4.40;;
78312;SDS011;67568;47.438;21.408;2023-09-19T10:26:17;13.10;;;4.82;;
78312;SDS011;67568;47.438;21.408;2023-09-19T10:28:46;13.38;;;4.35;;
78312;SDS011;67568;47.438;21.408;2023-09-19T10:31:19;12.33;;;4.77;;
78312;SDS011;67568;47.438;21.408;2023-09-19T10:33:48;16.75;;;4.50;;
78312;SDS011;67568;47.438;21.408;2023-09-19T10:36:16;20.08;;;5.63;;
78312;SDS011;67568;47.438;21.408;2023-09-19T10:38:44;16.58;;;5.03;;
78312;SDS011;67568;47.438;21.408;2023-09-19T10:41:11;12.38;;;5.10;;
78312;SDS011;67568;47.438;21.408;2023-09-19T10:43:43;14.97;;;5.13;;
78312;SDS011;67568;47.438;21.408;2023-09-19T10:46:17;14.52;;;5.10;;
78312;SDS011;67568;47.438;21.408;2023-09-19T10:48:44;13.02;;;5.25;;
78312;SDS011;67568;47.438;21.408;2023-09-19T10:51:15;21.33;;;5.85;;
78312;SDS011;67568;47.438;21.408;2023-09-19T10:53:50;15.20;;;5.20;;
78312;SDS011;67568;47.438;21.408;2023-09-19T10:56:24;13.30;;;6.10;;
78312;SDS011;67568;47.438;21.408;2023-09-19T10:59:08;13.63;;;5.32;;
78312;SDS011;67568;47.438;21.408;2023-09-19T11:01:55;16.45;;;5.90;;
78312;SDS011;67568;47.438;21.408;2023-09-19T11:07:06;14.50;;;6.22;;
78312;SDS011;67568;47.438;21.408;2023-09-19T11:13:02;10.73;;;3.28;;
78312;SDS011;67568;47.438;21.408;2023-09-19T11:15:04;8.60;;;3.20;;
78312;SDS011;67568;47.438;21.408;2023-09-19T11:17:32;11.15;;;3.42;;
78312;SDS011;67568;47.438;21.408;2023-09-19T11:30:37;11.70;;;2.25;;
78312;SDS011;67568;47.438;21.408;2023-09-19T11:33:18;8.23;;;2.53;;
78312;SDS011;67568;47.438;21.408;2023-09-19T11:36:34;6.63;;;2.40;;
78312;SDS011;67568;47.438;21.408;2023-09-19T11:43:47;9.38;;;2.90;;
78312;SDS011;67568;47.438;21.408;2023-09-19T11:46:15;11.23;;;2.92;;
78312;SDS011;67568;47.438;21.408;2023-09-19T11:48:43;9.67;;;3.27;;
78312;SDS011;67568;47.438;21.408;2023-09-19T11:51:10;11.98;;;3.60;;
78312;SDS011;67568;47.438;21.408;2023-09-19T11:53:38;11.48;;;3.60;;
78312;SDS011;67568;47.438;21.408;2023-09-19T11:56:08;11.60;;;3.30;;
78312;SDS011;67568;47.438;21.408;2023-09-19T11:58:36;11.00;;;3.97;;
78312;SDS011;67568;47.438;21.408;2023-09-19T12:01:04;14.80;;;3.47;;
78312;SDS011;67568;47.438;21.408;2023-09-19T12:03:32;9.90;;;3.60;;
78312;SDS011;67568;47.438;21.408;2023-09-19T12:05:59;11.23;;;3.38;;
78312;SDS011;67568;47.438;21.408;2023-09-19T12:08:26;9.07;;;2.85;;
78312;SDS011;67568;47.438;21.408;2023-09-19T12:10:53;13.18;;;2.95;;
78312;SDS011;67568;47.438;21.408;2023-09-19T12:13:20;9.10;;;2.87;;
78312;SDS011;67568;47.438;21.408;2023-09-19T12:15:47;8.93;;;1.67;;
78312;SDS011;67568;47.438;21.408;2023-09-19T12:18:27;10.68;;;2.03;;
78312;SDS011;67568;47.438;21.408;2023-09-19T12:20:54;4.50;;;1.00;;
78312;SDS011;67568;47.438;21.408;2023-09-19T12:23:22;4.60;;;0.85;;
78312;SDS011;67568;47.438;21.408;2023-09-19T12:25:49;4.37;;;0.70;;
78312;SDS011;67568;47.438;21.408;2023-09-19T12:28:18;4.88;;;0.80;;
78312;SDS011;67568;47.438;21.408;2023-09-19T12:30:55;2.60;;;0.73;;
78312;SDS011;67568;47.438;21.408;2023-09-19T12:33:32;5.68;;;0.60;;
78312;SDS011;67568;47.438;21.408;2023-09-19T12:35:59;6.47;;;0.57;;
78312;SDS011;67568;47.438;21.408;2023-09-19T12:38:27;6.30;;;0.80;;
78312;SDS011;67568;47.438;21.408;2023-09-19T12:41:01;8.45;;;0.70;;
78312;SDS011;67568;47.438;21.408;2023-09-19T12:43:28;3.30;;;0.70;;
78312;SDS011;67568;47.438;21.408;2023-09-19T12:45:56;2.15;;;0.68;;
78312;SDS011;67568;47.438;21.408;2023-09-19T12:48:23;11.75;;;1.45;;
78312;SDS011;67568;47.438;21.408;2023-09-19T12:53:40;2.20;;;0.60;;
78312;SDS011;67568;47.438;21.408;2023-09-19T12:56:11;4.35;;;0.65;;
78312;SDS011;67568;47.438;21.408;2023-09-19T12:58:53;4.28;;;0.50;;
78312;SDS011;67568;47.438;21.408;2023-09-19T13:01:23;5.70;;;0.98;;
78312;SDS011;67568;47.438;21.408;2023-09-19T13:06:48;10.45;;;1.70;;
78312;SDS011;67568;47.438;21.408;2023-09-19T13:09:20;7.32;;;0.90;;
78312;SDS011;67568;47.438;21.408;2023-09-19T13:11:48;2.88;;;0.70;;
78312;SDS011;67568;47.438;21.408;2023-09-19T13:14:22;7.85;;;1.02;;
78312;SDS011;67568;47.438;21.408;2023-09-19T13:19:39;7.32;;;1.60;;
78312;SDS011;67568;47.438;21.408;2023-09-19T13:25:15;6.15;;;0.70;;
78312;SDS011;67568;47.438;21.408;2023-09-19T13:27:49;3.95;;;0.75;;
78312;SDS011;67568;47.438;21.408;2023-09-19T13:30:18;3.27;;;0.70;;
78312;SDS011;67568;47.438;21.408;2023-09-19T13:32:45;3.78;;;1.00;;
78312;SDS011;67568;47.438;21.408;2023-09-19T13:35:12;4.50;;;0.75;;
78312;SDS011;67568;47.438;21.408;2023-09-19T13:37:40;2.28;;;0.80;;
78312;SDS011;67568;47.438;21.408;2023-09-19T13:40:08;3.67;;;0.80;;
78312;SDS011;67568;47.438;21.408;2023-09-19T13:42:36;5.27;;;1.03;;
78312;SDS011;67568;47.438;21.408;2023-09-19T13:45:03;5.68;;;0.82;;
78312;SDS011;67568;47.438;21.408;2023-09-19T13:47:31;2.78;;;0.90;;
78312;SDS011;67568;47.438;21.408;2023-09-19T13:50:02;2.58;;;0.90;;
78312;SDS011;67568;47.438;21.408;2023-09-19T13:52:30;3.35;;;0.70;;
78312;SDS011;67568;47.438;21.408;2023-09-19T13:54:57;3.60;;;0.70;;
78312;SDS011;67568;47.438;21.408;2023-09-19T13:57:25;2.83;;;0.73;;
78312;SDS011;67568;47.438;21.408;2023-09-19T13:59:52;3.65;;;0.80;;
78312;SDS011;67568;47.438;21.408;2023-09-19T14:02:20;4.03;;;0.77;;
78312;SDS011;67568;47.438;21.408;2023-09-19T14:04:50;6.80;;;1.50;;
78312;SDS011;67568;47.438;21.408;2023-09-19T14:07:18;3.33;;;0.80;;
78312;SDS011;67568;47.438;21.408;2023-09-19T14:09:45;3.88;;;0.80;;
78312;SDS011;67568;47.438;21.408;2023-09-19T14:12:13;3.95;;;0.85;;
78312;SDS011;67568;47.438;21.408;2023-09-19T14:14:40;2.92;;;0.73;;
78312;SDS011;67568;47.438;21.408;2023-09-19T14:17:07;5.10;;;0.88;;
78312;SDS011;67568;47.438;21.408;2023-09-19T14:19:34;6.20;;;1.10;;
78312;SDS011;67568;47.438;21.408;2023-09-19T14:22:00;4.15;;;0.90;;
78312;SDS011;67568;47.438;21.408;2023-09-19T14:24:27;4.63;;;0.90;;
78312;SDS011;67568;47.438;21.408;2023-09-19T14:26:54;4.70;;;0.88;;
78312;SDS011;67568;47.438;21.408;2023-09-19T14:29:20;3.15;;;1.00;;
78312;SDS011;67568;47.438;21.408;2023-09-19T14:31:47;3.10;;;0.90;;
78312;SDS011;67568;47.438;21.408;2023-09-19T14:34:14;3.58;;;0.80;;
78312;SDS011;67568;47.438;21.408;2023-09-19T14:36:41;4.68;;;0.93;;
78312;SDS011;67568;47.438;21.408;2023-09-19T14:39:07;3.63;;;1.15;;
78312;SDS011;67568;47.438;21.408;2023-09-19T14:41:34;5.63;;;1.15;;
78312;SDS011;67568;47.438;21.408;2023-09-19T14:44:02;6.00;;;0.87;;
78312;SDS011;67568;47.438;21.408;2023-09-19T14:46:29;6.03;;;0.90;;
78312;SDS011;67568;47.438;21.408;2023-09-19T14:48:56;5.22;;;0.80;;
78312;SDS011;67568;47.438;21.408;2023-09-19T14:51:27;2.72;;;0.90;;
78312;SDS011;67568;47.438;21.408;2023-09-19T14:53:55;5.90;;;0.90;;
78312;SDS011;67568;47.438;21.408;2023-09-19T14:56:22;3.33;;;0.80;;
78312;SDS011;67568;47.438;21.408;2023-09-19T14:58:49;6.00;;;0.90;;
78312;SDS011;67568;47.438;21.408;2023-09-19T15:01:16;5.72;;;1.20;;
78312;SDS011;67568;47.438;21.408;2023-09-19T15:03:42;4.25;;;0.90;;
78312;SDS011;67568;47.438;21.408;2023-09-19T15:06:10;2.70;;;0.80;;
78312;SDS011;67568;47.438;21.408;2023-09-19T15:08:38;5.93;;;0.80;;
78312;SDS011;67568;47.438;21.408;2023-09-19T15:11:05;4.95;;;0.80;;
78312;SDS011;67568;47.438;21.408;2023-09-19T15:13:33;6.32;;;0.95;;
78312;SDS011;67568;47.438;21.408;2023-09-19T15:16:04;3.92;;;0.90;;
78312;SDS011;67568;47.438;21.408;2023-09-19T15:18:35;8.05;;;0.88;;
78312;SDS011;67568;47.438;21.408;2023-09-19T15:21:03;4.27;;;0.73;;
78312;SDS011;67568;47.438;21.408;2023-09-19T15:23:30;5.05;;;1.25;;
78312;SDS011;67568;47.438;21.408;2023-09-19T15:25:58;3.33;;;0.70;;
78312;SDS011;67568;47.438;21.408;2023-09-19T15:28:25;3.00;;;0.70;;
78312;SDS011;67568;47.438;21.408;2023-09-19T15:31:10;4.22;;;0.80;;
78312;SDS011;67568;47.438;21.408;2023-09-19T15:33:39;8.37;;;1.30;;
78312;SDS011;67568;47.438;21.408;2023-09-19T15:36:07;7.00;;;1.95;;
78312;SDS011;67568;47.438;21.408;2023-09-19T15:41:31;5.47;;;1.85;;